sensor_id;sensor_type;location;lat;lon;timestamp;P1;durP1;ratioP1;P2;durP2;ratioP2
39218;SDS011;24934;52.752;6.964;2024-01-07T00:01:12;46.97;;;32.77;;
39218;SDS011;24934;52.752;6.964;2024-01-07T00:03:41;43.10;;;32.37;;
39218;SDS011;24934;52.752;6.964;2024-01-07T00:06:12;43.63;;;32.87;;
39218;SDS011;24934;52.752;6.964;2024-01-07T00:08:46;43.37;;;32.37;;
39218;SDS011;24934;52.752;6.964;2024-01-07T00:11:12;48.87;;;32.50;;
39218;SDS011;24934;52.752;6.964;2024-01-07T00:13:41;43.23;;;32.37;;
39218;SDS011;24934;52.752;6.964;2024-01-07T00:16:10;40.30;;;31.90;;
39218;SDS011;24934;52.752;6.964;2024-01-07T00:18:36;45.37;;;32.10;;
39218;SDS011;24934;52.752;6.964;2024-01-07T00:21:05;39.93;;;30.40;;
39218;SDS011;24934;52.752;6.964;2024-01-07T00:23:31;40.20;;;30.57;;
39218;SDS011;24934;52.752;6.964;2024-01-07T00:25:57;38.63;;;29.90;;
39218;SDS011;24934;52.752;6.964;2024-01-07T00:28:31;38.10;;;29.33;;
39218;SDS011;24934;52.752;6.964;2024-01-07T00:30:57;39.60;;;29.03;;
39218;SDS011;24934;52.752;6.964;2024-01-07T00:33:23;36.57;;;27.30;;
39218;SDS011;24934;52.752;6.964;2024-01-07T00:35:49;36.17;;;28.07;;
39218;SDS011;24934;52.752;6.964;2024-01-07T00:38:15;36.37;;;28.10;;
39218;SDS011;24934;52.752;6.964;2024-01-07T00:40:43;32.77;;;26.20;;
39218;SDS011;24934;52.752;6.964;2024-01-07T00:43:10;32.33;;;26.83;;
39218;SDS011;24934;52.752;6.964;2024-01-07T00:45:36;33.57;;;26.43;;
39218;SDS011;24934;52.752;6.964;2024-01-07T00:48:09;32.00;;;25.00;;
39218;SDS011;24934;52.752;6.964;2024-01-07T00:50:41;29.27;;;24.60;;
39218;SDS011;24934;52.752;6.964;2024-01-07T00:53:07;31.53;;;24.77;;
39218;SDS011;24934;52.752;6.964;2024-01-07T00:55:36;31.27;;;24.70;;
39218;SDS011;24934;52.752;6.964;2024-01-07T00:58:02;32.20;;;25.67;;
39218;SDS011;24934;52.752;6.964;2024-01-07T01:00:28;32.80;;;24.53;;
39218;SDS011;24934;52.752;6.964;2024-01-07T01:02:54;31.60;;;25.10;;
39218;SDS011;24934;52.752;6.964;2024-01-07T01:05:23;30.10;;;24.07;;
39218;SDS011;24934;52.752;6.964;2024-01-07T01:07:49;29.23;;;23.93;;
39218;SDS011;24934;52.752;6.964;2024-01-07T01:10:18;29.83;;;24.33;;
39218;SDS011;24934;52.752;6.964;2024-01-07T01:12:45;31.03;;;25.17;;
39218;SDS011;24934;52.752;6.964;2024-01-07T01:15:11;31.57;;;25.27;;
39218;SDS011;24934;52.752;6.964;2024-01-07T01:17:37;32.50;;;23.37;;
39218;SDS011;24934;52.752;6.964;2024-01-07T01:20:03;30.83;;;25.50;;
39218;SDS011;24934;52.752;6.964;2024-01-07T01:22:29;31.87;;;25.13;;
39218;SDS011;24934;52.752;6.964;2024-01-07T01:24:55;30.30;;;25.43;;
39218;SDS011;24934;52.752;6.964;2024-01-07T01:27:21;30.80;;;24.83;;
39218;SDS011;24934;52.752;6.964;2024-01-07T01:29:47;28.43;;;24.10;;
39218;SDS011;24934;52.752;6.964;2024-01-07T01:32:13;29.90;;;25.07;;
39218;SDS011;24934;52.752;6.964;2024-01-07T01:34:40;30.20;;;24.53;;
39218;SDS011;24934;52.752;6.964;2024-01-07T01:37:07;31.40;;;24.57;;
39218;SDS011;24934;52.752;6.964;2024-01-07T01:39:33;28.80;;;24.80;;
39218;SDS011;24934;52.752;6.964;2024-01-07T01:41:59;29.23;;;24.43;;
39218;SDS011;24934;52.752;6.964;2024-01-07T01:44:25;30.53;;;24.93;;
39218;SDS011;24934;52.752;6.964;2024-01-07T01:46:53;31.43;;;24.73;;
39218;SDS011;24934;52.752;6.964;2024-01-07T01:49:20;31.30;;;24.67;;
39218;SDS011;24934;52.752;6.964;2024-01-07T01:51:46;30.63;;;24.23;;
39218;SDS011;24934;52.752;6.964;2024-01-07T01:54:12;31.33;;;24.83;;
39218;SDS011;24934;52.752;6.964;2024-01-07T01:56:38;30.23;;;24.33;;
39218;SDS011;24934;52.752;6.964;2024-01-07T01:59:04;27.57;;;22.93;;
39218;SDS011;24934;52.752;6.964;2024-01-07T02:01:30;30.00;;;24.20;;
39218;SDS011;24934;52.752;6.964;2024-01-07T02:03:57;28.53;;;23.43;;
39218;SDS011;24934;52.752;6.964;2024-01-07T02:06:23;30.97;;;23.57;;
39218;SDS011;24934;52.752;6.964;2024-01-07T02:08:49;27.07;;;23.53;;
39218;SDS011;24934;52.752;6.964;2024-01-07T02:11:19;32.43;;;25.30;;
39218;SDS011;24934;52.752;6.964;2024-01-07T02:13:45;34.83;;;26.53;;
39218;SDS011;24934;52.752;6.964;2024-01-07T02:16:11;29.37;;;25.07;;
39218;SDS011;24934;52.752;6.964;2024-01-07T02:18:38;31.37;;;25.23;;
39218;SDS011;24934;52.752;6.964;2024-01-07T02:21:06;31.57;;;25.63;;
39218;SDS011;24934;52.752;6.964;2024-01-07T02:23:33;29.90;;;25.53;;
39218;SDS011;24934;52.752;6.964;2024-01-07T02:25:59;27.63;;;24.63;;
39218;SDS011;24934;52.752;6.964;2024-01-07T02:28:25;30.73;;;23.60;;
39218;SDS011;24934;52.752;6.964;2024-01-07T02:30:51;26.60;;;22.90;;
39218;SDS011;24934;52.752;6.964;2024-01-07T02:33:17;29.83;;;24.53;;
39218;SDS011;24934;52.752;6.964;2024-01-07T02:35:42;27.67;;;23.30;;
39218;SDS011;24934;52.752;6.964;2024-01-07T02:38:08;27.47;;;23.20;;
39218;SDS011;24934;52.752;6.964;2024-01-07T02:40:34;28.37;;;23.30;;
39218;SDS011;24934;52.752;6.964;2024-01-07T02:43:00;26.07;;;22.63;;
39218;SDS011;24934;52.752;6.964;2024-01-07T02:45:26;27.30;;;22.97;;
39218;SDS011;24934;52.752;6.964;2024-01-07T02:47:52;26.10;;;22.67;;
39218;SDS011;24934;52.752;6.964;2024-01-07T02:50:18;27.67;;;22.80;;
39218;SDS011;24934;52.752;6.964;2024-01-07T02:52:44;25.90;;;23.03;;
39218;SDS011;24934;52.752;6.964;2024-01-07T02:55:10;27.50;;;22.97;;
39218;SDS011;24934;52.752;6.964;2024-01-07T02:57:36;27.87;;;23.73;;
39218;SDS011;24934;52.752;6.964;2024-01-07T03:00:02;27.07;;;23.73;;
39218;SDS011;24934;52.752;6.964;2024-01-07T03:02:29;25.97;;;22.67;;
39218;SDS011;24934;52.752;6.964;2024-01-07T03:04:55;26.67;;;22.30;;
39218;SDS011;24934;52.752;6.964;2024-01-07T03:07:21;25.87;;;22.83;;
39218;SDS011;24934;52.752;6.964;2024-01-07T03:09:48;27.67;;;22.67;;
39218;SDS011;24934;52.752;6.964;2024-01-07T03:12:17;27.87;;;23.40;;
39218;SDS011;24934;52.752;6.964;2024-01-07T03:14:43;29.53;;;22.83;;
39218;SDS011;24934;52.752;6.964;2024-01-07T03:17:10;27.97;;;23.20;;
39218;SDS011;24934;52.752;6.964;2024-01-07T03:19:37;26.97;;;22.90;;
39218;SDS011;24934;52.752;6.964;2024-01-07T03:22:03;29.50;;;22.57;;
39218;SDS011;24934;52.752;6.964;2024-01-07T03:24:32;27.50;;;23.27;;
39218;SDS011;24934;52.752;6.964;2024-01-07T03:26:58;26.47;;;23.53;;
39218;SDS011;24934;52.752;6.964;2024-01-07T03:29:23;27.57;;;23.03;;
39218;SDS011;24934;52.752;6.964;2024-01-07T03:31:49;27.20;;;22.90;;
39218;SDS011;24934;52.752;6.964;2024-01-07T03:34:17;25.50;;;22.43;;
39218;SDS011;24934;52.752;6.964;2024-01-07T03:36:43;25.40;;;22.27;;
39218;SDS011;24934;52.752;6.964;2024-01-07T03:39:09;26.07;;;22.63;;
39218;SDS011;24934;52.752;6.964;2024-01-07T03:41:35;29.43;;;23.37;;
39218;SDS011;24934;52.752;6.964;2024-01-07T03:44:01;29.70;;;23.23;;
39218;SDS011;24934;52.752;6.964;2024-01-07T03:46:27;26.70;;;21.87;;
39218;SDS011;24934;52.752;6.964;2024-01-07T03:48:53;26.20;;;22.87;;
39218;SDS011;24934;52.752;6.964;2024-01-07T03:51:19;27.03;;;23.13;;
39218;SDS011;24934;52.752;6.964;2024-01-07T03:53:45;27.37;;;22.83;;
39218;SDS011;24934;52.752;6.964;2024-01-07T03:56:11;26.87;;;23.17;;
39218;SDS011;24934;52.752;6.964;2024-01-07T03:58:37;28.57;;;21.60;;
39218;SDS011;24934;52.752;6.964;2024-01-07T04:01:03;24.93;;;21.50;;
39218;SDS011;24934;52.752;6.964;2024-01-07T04:03:29;25.53;;;21.20;;
39218;SDS011;24934;52.752;6.964;2024-01-07T04:05:55;26.30;;;21.13;;
39218;SDS011;24934;52.752;6.964;2024-01-07T04:08:21;24.70;;;21.40;;
39218;SDS011;24934;52.752;6.964;2024-01-07T04:10:47;26.50;;;21.07;;
39218;SDS011;24934;52.752;6.964;2024-01-07T04:13:13;24.87;;;21.23;;
39218;SDS011;24934;52.752;6.964;2024-01-07T04:15:39;25.73;;;21.27;;
39218;SDS011;24934;52.752;6.964;2024-01-07T04:18:05;27.60;;;22.40;;
39218;SDS011;24934;52.752;6.964;2024-01-07T04:20:31;27.97;;;22.77;;
39218;SDS011;24934;52.752;6.964;2024-01-07T04:22:57;25.20;;;22.33;;
39218;SDS011;24934;52.752;6.964;2024-01-07T04:25:23;30.53;;;22.50;;
39218;SDS011;24934;52.752;6.964;2024-01-07T04:27:49;26.50;;;22.10;;
39218;SDS011;24934;52.752;6.964;2024-01-07T04:30:15;27.63;;;21.97;;
39218;SDS011;24934;52.752;6.964;2024-01-07T04:32:41;25.90;;;21.90;;
39218;SDS011;24934;52.752;6.964;2024-01-07T04:35:07;27.77;;;21.63;;
39218;SDS011;24934;52.752;6.964;2024-01-07T04:37:34;25.67;;;21.40;;
39218;SDS011;24934;52.752;6.964;2024-01-07T04:40:00;24.37;;;20.70;;
39218;SDS011;24934;52.752;6.964;2024-01-07T04:42:27;24.07;;;21.47;;
39218;SDS011;24934;52.752;6.964;2024-01-07T04:44:53;28.47;;;23.23;;
39218;SDS011;24934;52.752;6.964;2024-01-07T04:49:52;28.10;;;23.23;;
39218;SDS011;24934;52.752;6.964;2024-01-07T04:52:18;31.57;;;23.50;;
39218;SDS011;24934;52.752;6.964;2024-01-07T04:54:44;30.00;;;23.57;;
39218;SDS011;24934;52.752;6.964;2024-01-07T04:57:10;27.47;;;22.73;;
39218;SDS011;24934;52.752;6.964;2024-01-07T04:59:36;26.30;;;21.07;;
39218;SDS011;24934;52.752;6.964;2024-01-07T05:02:02;24.53;;;20.00;;
39218;SDS011;24934;52.752;6.964;2024-01-07T05:04:28;25.00;;;19.53;;
39218;SDS011;24934;52.752;6.964;2024-01-07T05:06:54;23.17;;;18.33;;
39218;SDS011;24934;52.752;6.964;2024-01-07T05:09:20;20.77;;;17.70;;
39218;SDS011;24934;52.752;6.964;2024-01-07T05:11:46;20.10;;;17.77;;
39218;SDS011;24934;52.752;6.964;2024-01-07T05:14:12;20.63;;;17.73;;
39218;SDS011;24934;52.752;6.964;2024-01-07T05:16:38;19.93;;;17.43;;
39218;SDS011;24934;52.752;6.964;2024-01-07T05:19:04;22.40;;;17.13;;
39218;SDS011;24934;52.752;6.964;2024-01-07T05:21:30;23.07;;;17.97;;
39218;SDS011;24934;52.752;6.964;2024-01-07T05:23:56;20.73;;;18.20;;
39218;SDS011;24934;52.752;6.964;2024-01-07T05:26:22;22.27;;;18.53;;
39218;SDS011;24934;52.752;6.964;2024-01-07T05:28:48;22.07;;;18.87;;
39218;SDS011;24934;52.752;6.964;2024-01-07T05:31:15;22.07;;;19.47;;
39218;SDS011;24934;52.752;6.964;2024-01-07T05:33:41;22.93;;;19.53;;
39218;SDS011;24934;52.752;6.964;2024-01-07T05:36:07;24.67;;;19.93;;
39218;SDS011;24934;52.752;6.964;2024-01-07T05:38:33;23.33;;;19.73;;
39218;SDS011;24934;52.752;6.964;2024-01-07T05:40:59;21.70;;;18.83;;
39218;SDS011;24934;52.752;6.964;2024-01-07T05:43:25;25.13;;;18.90;;
39218;SDS011;24934;52.752;6.964;2024-01-07T05:45:51;21.87;;;18.57;;
39218;SDS011;24934;52.752;6.964;2024-01-07T05:48:17;21.50;;;18.20;;
39218;SDS011;24934;52.752;6.964;2024-01-07T05:50:43;19.73;;;17.23;;
39218;SDS011;24934;52.752;6.964;2024-01-07T05:53:09;18.90;;;16.50;;
39218;SDS011;24934;52.752;6.964;2024-01-07T05:55:35;18.13;;;16.13;;
39218;SDS011;24934;52.752;6.964;2024-01-07T05:58:01;18.23;;;16.33;;
39218;SDS011;24934;52.752;6.964;2024-01-07T06:00:27;18.37;;;16.47;;
39218;SDS011;24934;52.752;6.964;2024-01-07T06:02:53;19.03;;;16.40;;
39218;SDS011;24934;52.752;6.964;2024-01-07T06:05:19;17.23;;;15.53;;
39218;SDS011;24934;52.752;6.964;2024-01-07T06:07:45;18.57;;;16.20;;
39218;SDS011;24934;52.752;6.964;2024-01-07T06:10:13;16.80;;;15.20;;
39218;SDS011;24934;52.752;6.964;2024-01-07T06:12:39;16.83;;;15.23;;
39218;SDS011;24934;52.752;6.964;2024-01-07T06:15:05;16.10;;;14.70;;
39218;SDS011;24934;52.752;6.964;2024-01-07T06:17:31;15.50;;;14.07;;
39218;SDS011;24934;52.752;6.964;2024-01-07T06:19:57;15.53;;;14.03;;
39218;SDS011;24934;52.752;6.964;2024-01-07T06:22:23;14.97;;;13.60;;
39218;SDS011;24934;52.752;6.964;2024-01-07T06:24:49;15.37;;;13.97;;
39218;SDS011;24934;52.752;6.964;2024-01-07T06:27:15;15.13;;;13.77;;
39218;SDS011;24934;52.752;6.964;2024-01-07T06:29:41;15.57;;;14.17;;
39218;SDS011;24934;52.752;6.964;2024-01-07T06:32:07;15.20;;;13.63;;
39218;SDS011;24934;52.752;6.964;2024-01-07T06:34:35;16.00;;;14.40;;
39218;SDS011;24934;52.752;6.964;2024-01-07T06:37:01;14.40;;;13.10;;
39218;SDS011;24934;52.752;6.964;2024-01-07T06:39:27;14.50;;;13.17;;
39218;SDS011;24934;52.752;6.964;2024-01-07T06:41:53;14.40;;;12.90;;
39218;SDS011;24934;52.752;6.964;2024-01-07T06:44:19;14.67;;;13.17;;
39218;SDS011;24934;52.752;6.964;2024-01-07T06:46:45;15.00;;;13.60;;
39218;SDS011;24934;52.752;6.964;2024-01-07T06:49:11;14.07;;;12.77;;
39218;SDS011;24934;52.752;6.964;2024-01-07T06:51:37;14.43;;;12.90;;
39218;SDS011;24934;52.752;6.964;2024-01-07T06:54:03;14.00;;;12.87;;
39218;SDS011;24934;52.752;6.964;2024-01-07T06:56:29;14.33;;;13.03;;
39218;SDS011;24934;52.752;6.964;2024-01-07T06:58:55;14.80;;;13.40;;
39218;SDS011;24934;52.752;6.964;2024-01-07T07:01:22;14.73;;;13.37;;
39218;SDS011;24934;52.752;6.964;2024-01-07T07:03:48;13.40;;;12.27;;
39218;SDS011;24934;52.752;6.964;2024-01-07T07:06:14;13.13;;;12.00;;
39218;SDS011;24934;52.752;6.964;2024-01-07T07:08:40;13.57;;;12.27;;
39218;SDS011;24934;52.752;6.964;2024-01-07T07:11:06;13.30;;;11.97;;
39218;SDS011;24934;52.752;6.964;2024-01-07T07:13:32;13.03;;;11.93;;
39218;SDS011;24934;52.752;6.964;2024-01-07T07:15:59;13.30;;;12.00;;
39218;SDS011;24934;52.752;6.964;2024-01-07T07:18:25;12.63;;;11.50;;
39218;SDS011;24934;52.752;6.964;2024-01-07T07:20:51;13.07;;;11.90;;
39218;SDS011;24934;52.752;6.964;2024-01-07T07:23:17;12.83;;;11.63;;
39218;SDS011;24934;52.752;6.964;2024-01-07T07:25:43;12.50;;;11.23;;
39218;SDS011;24934;52.752;6.964;2024-01-07T07:28:09;12.90;;;11.80;;
39218;SDS011;24934;52.752;6.964;2024-01-07T07:30:35;12.40;;;11.30;;
39218;SDS011;24934;52.752;6.964;2024-01-07T07:33:01;12.63;;;11.53;;
39218;SDS011;24934;52.752;6.964;2024-01-07T07:35:28;12.60;;;11.37;;
39218;SDS011;24934;52.752;6.964;2024-01-07T07:37:54;12.37;;;11.30;;
39218;SDS011;24934;52.752;6.964;2024-01-07T07:40:20;12.17;;;11.17;;
39218;SDS011;24934;52.752;6.964;2024-01-07T07:42:46;11.60;;;10.70;;
39218;SDS011;24934;52.752;6.964;2024-01-07T07:45:12;11.90;;;10.80;;
39218;SDS011;24934;52.752;6.964;2024-01-07T07:47:38;11.50;;;10.40;;
39218;SDS011;24934;52.752;6.964;2024-01-07T07:50:09;11.50;;;10.40;;
39218;SDS011;24934;52.752;6.964;2024-01-07T07:52:35;12.93;;;11.87;;
39218;SDS011;24934;52.752;6.964;2024-01-07T07:55:01;13.00;;;11.77;;
39218;SDS011;24934;52.752;6.964;2024-01-07T07:57:27;12.47;;;11.43;;
39218;SDS011;24934;52.752;6.964;2024-01-07T07:59:54;12.80;;;11.80;;
39218;SDS011;24934;52.752;6.964;2024-01-07T08:02:20;13.53;;;12.43;;
39218;SDS011;24934;52.752;6.964;2024-01-07T08:04:46;12.77;;;11.77;;
39218;SDS011;24934;52.752;6.964;2024-01-07T08:07:12;13.47;;;12.30;;
39218;SDS011;24934;52.752;6.964;2024-01-07T08:09:39;13.53;;;12.47;;
39218;SDS011;24934;52.752;6.964;2024-01-07T08:12:05;13.83;;;12.53;;
39218;SDS011;24934;52.752;6.964;2024-01-07T08:14:31;13.53;;;12.13;;
39218;SDS011;24934;52.752;6.964;2024-01-07T08:16:58;14.03;;;12.60;;
39218;SDS011;24934;52.752;6.964;2024-01-07T08:19:24;13.93;;;12.80;;
39218;SDS011;24934;52.752;6.964;2024-01-07T08:21:50;13.67;;;12.40;;
39218;SDS011;24934;52.752;6.964;2024-01-07T08:24:16;13.33;;;12.20;;
39218;SDS011;24934;52.752;6.964;2024-01-07T08:26:42;12.93;;;12.03;;
39218;SDS011;24934;52.752;6.964;2024-01-07T08:29:08;13.30;;;12.20;;
39218;SDS011;24934;52.752;6.964;2024-01-07T08:31:34;13.57;;;12.37;;
39218;SDS011;24934;52.752;6.964;2024-01-07T08:34:00;13.10;;;11.90;;
39218;SDS011;24934;52.752;6.964;2024-01-07T08:36:26;12.93;;;11.83;;
39218;SDS011;24934;52.752;6.964;2024-01-07T08:38:52;12.90;;;11.80;;
39218;SDS011;24934;52.752;6.964;2024-01-07T08:41:18;12.73;;;11.73;;
39218;SDS011;24934;52.752;6.964;2024-01-07T08:43:44;13.00;;;11.90;;
39218;SDS011;24934;52.752;6.964;2024-01-07T08:46:10;12.97;;;11.70;;
39218;SDS011;24934;52.752;6.964;2024-01-07T08:48:38;13.00;;;11.90;;
39218;SDS011;24934;52.752;6.964;2024-01-07T08:51:04;13.00;;;11.90;;
39218;SDS011;24934;52.752;6.964;2024-01-07T08:53:30;13.07;;;12.07;;
39218;SDS011;24934;52.752;6.964;2024-01-07T08:55:56;13.00;;;11.90;;
39218;SDS011;24934;52.752;6.964;2024-01-07T08:58:22;13.33;;;12.23;;
39218;SDS011;24934;52.752;6.964;2024-01-07T09:00:49;13.90;;;12.60;;
39218;SDS011;24934;52.752;6.964;2024-01-07T09:03:14;13.67;;;12.50;;
39218;SDS011;24934;52.752;6.964;2024-01-07T09:05:40;13.37;;;12.37;;
39218;SDS011;24934;52.752;6.964;2024-01-07T09:08:06;13.83;;;12.53;;
39218;SDS011;24934;52.752;6.964;2024-01-07T09:10:33;13.53;;;12.40;;
39218;SDS011;24934;52.752;6.964;2024-01-07T09:12:59;13.83;;;12.73;;
39218;SDS011;24934;52.752;6.964;2024-01-07T09:15:25;14.30;;;13.07;;
39218;SDS011;24934;52.752;6.964;2024-01-07T09:17:51;14.07;;;12.90;;
39218;SDS011;24934;52.752;6.964;2024-01-07T09:20:17;14.87;;;13.40;;
39218;SDS011;24934;52.752;6.964;2024-01-07T09:22:43;14.47;;;13.27;;
39218;SDS011;24934;52.752;6.964;2024-01-07T09:25:09;15.00;;;13.80;;
39218;SDS011;24934;52.752;6.964;2024-01-07T09:27:36;14.77;;;13.47;;
39218;SDS011;24934;52.752;6.964;2024-01-07T09:30:02;14.20;;;13.10;;
39218;SDS011;24934;52.752;6.964;2024-01-07T09:32:28;14.73;;;13.27;;
39218;SDS011;24934;52.752;6.964;2024-01-07T09:34:54;14.17;;;12.97;;
39218;SDS011;24934;52.752;6.964;2024-01-07T09:37:20;14.43;;;13.33;;
39218;SDS011;24934;52.752;6.964;2024-01-07T09:39:46;14.00;;;12.90;;
39218;SDS011;24934;52.752;6.964;2024-01-07T09:42:16;14.03;;;12.80;;
39218;SDS011;24934;52.752;6.964;2024-01-07T09:44:42;14.03;;;12.80;;
39218;SDS011;24934;52.752;6.964;2024-01-07T09:47:12;14.43;;;13.23;;
39218;SDS011;24934;52.752;6.964;2024-01-07T09:49:39;14.70;;;13.47;;
39218;SDS011;24934;52.752;6.964;2024-01-07T09:52:06;14.60;;;13.43;;
39218;SDS011;24934;52.752;6.964;2024-01-07T09:54:33;14.90;;;13.67;;
39218;SDS011;24934;52.752;6.964;2024-01-07T09:57:02;14.80;;;13.60;;
39218;SDS011;24934;52.752;6.964;2024-01-07T09:59:29;14.60;;;13.47;;
39218;SDS011;24934;52.752;6.964;2024-01-07T10:01:55;15.43;;;14.07;;
39218;SDS011;24934;52.752;6.964;2024-01-07T10:04:22;16.23;;;14.87;;
39218;SDS011;24934;52.752;6.964;2024-01-07T10:06:48;15.80;;;14.37;;
39218;SDS011;24934;52.752;6.964;2024-01-07T10:09:15;16.30;;;15.10;;
39218;SDS011;24934;52.752;6.964;2024-01-07T10:11:41;16.23;;;15.03;;
39218;SDS011;24934;52.752;6.964;2024-01-07T10:14:07;16.30;;;15.00;;
39218;SDS011;24934;52.752;6.964;2024-01-07T10:16:33;16.40;;;15.10;;
39218;SDS011;24934;52.752;6.964;2024-01-07T10:18:59;16.83;;;15.50;;
39218;SDS011;24934;52.752;6.964;2024-01-07T10:21:25;16.90;;;15.50;;
39218;SDS011;24934;52.752;6.964;2024-01-07T10:23:56;16.90;;;15.60;;
39218;SDS011;24934;52.752;6.964;2024-01-07T10:26:35;16.97;;;15.57;;
39218;SDS011;24934;52.752;6.964;2024-01-07T10:29:01;16.20;;;15.03;;
39218;SDS011;24934;52.752;6.964;2024-01-07T10:31:27;17.00;;;15.30;;
39218;SDS011;24934;52.752;6.964;2024-01-07T10:33:54;15.73;;;14.33;;
39218;SDS011;24934;52.752;6.964;2024-01-07T10:36:21;15.77;;;14.50;;
39218;SDS011;24934;52.752;6.964;2024-01-07T10:38:47;15.93;;;14.43;;
39218;SDS011;24934;52.752;6.964;2024-01-07T10:41:14;15.87;;;14.57;;
39218;SDS011;24934;52.752;6.964;2024-01-07T10:43:40;15.70;;;14.50;;
39218;SDS011;24934;52.752;6.964;2024-01-07T10:46:07;16.57;;;15.27;;
39218;SDS011;24934;52.752;6.964;2024-01-07T10:48:35;15.70;;;14.40;;
39218;SDS011;24934;52.752;6.964;2024-01-07T10:51:03;15.93;;;14.67;;
39218;SDS011;24934;52.752;6.964;2024-01-07T10:53:33;16.23;;;14.90;;
39218;SDS011;24934;52.752;6.964;2024-01-07T10:56:04;15.67;;;14.53;;
39218;SDS011;24934;52.752;6.964;2024-01-07T10:58:32;16.53;;;15.10;;
39218;SDS011;24934;52.752;6.964;2024-01-07T11:01:01;15.93;;;14.70;;
39218;SDS011;24934;52.752;6.964;2024-01-07T11:06:22;16.23;;;15.00;;
39218;SDS011;24934;52.752;6.964;2024-01-07T11:08:52;16.57;;;15.27;;
39218;SDS011;24934;52.752;6.964;2024-01-07T11:11:27;16.30;;;14.77;;
39218;SDS011;24934;52.752;6.964;2024-01-07T11:13:59;16.13;;;14.63;;
39218;SDS011;24934;52.752;6.964;2024-01-07T11:19:05;15.77;;;14.57;;
39218;SDS011;24934;52.752;6.964;2024-01-07T11:21:31;15.43;;;14.23;;
39218;SDS011;24934;52.752;6.964;2024-01-07T11:23:57;15.43;;;14.07;;
39218;SDS011;24934;52.752;6.964;2024-01-07T11:26:23;15.67;;;14.37;;
39218;SDS011;24934;52.752;6.964;2024-01-07T11:28:53;15.60;;;14.40;;
39218;SDS011;24934;52.752;6.964;2024-01-07T11:34:07;16.37;;;14.97;;
39218;SDS011;24934;52.752;6.964;2024-01-07T11:36:36;15.80;;;14.60;;
39218;SDS011;24934;52.752;6.964;2024-01-07T11:39:04;15.87;;;14.57;;
39218;SDS011;24934;52.752;6.964;2024-01-07T11:41:34;15.40;;;14.27;;
39218;SDS011;24934;52.752;6.964;2024-01-07T11:44:00;15.60;;;14.40;;
39218;SDS011;24934;52.752;6.964;2024-01-07T11:46:29;15.50;;;14.30;;
39218;SDS011;24934;52.752;6.964;2024-01-07T11:48:56;15.53;;;14.33;;
39218;SDS011;24934;52.752;6.964;2024-01-07T11:51:32;15.67;;;14.37;;
39218;SDS011;24934;52.752;6.964;2024-01-07T11:54:00;15.97;;;14.30;;
39218;SDS011;24934;52.752;6.964;2024-01-07T11:56:27;16.70;;;15.20;;
39218;SDS011;24934;52.752;6.964;2024-01-07T11:58:53;16.20;;;14.90;;
39218;SDS011;24934;52.752;6.964;2024-01-07T12:01:21;16.27;;;14.97;;
39218;SDS011;24934;52.752;6.964;2024-01-07T12:03:47;16.77;;;15.37;;
39218;SDS011;24934;52.752;6.964;2024-01-07T12:06:14;16.80;;;15.30;;
39218;SDS011;24934;52.752;6.964;2024-01-07T12:08:43;16.47;;;15.13;;
39218;SDS011;24934;52.752;6.964;2024-01-07T12:11:13;16.60;;;15.20;;
39218;SDS011;24934;52.752;6.964;2024-01-07T12:13:39;16.53;;;14.97;;
39218;SDS011;24934;52.752;6.964;2024-01-07T12:16:06;17.00;;;15.60;;
39218;SDS011;24934;52.752;6.964;2024-01-07T12:18:32;16.67;;;15.37;;
39218;SDS011;24934;52.752;6.964;2024-01-07T12:20:58;17.90;;;16.50;;
39218;SDS011;24934;52.752;6.964;2024-01-07T12:23:25;17.07;;;15.57;;
39218;SDS011;24934;52.752;6.964;2024-01-07T12:25:54;17.80;;;16.37;;
39218;SDS011;24934;52.752;6.964;2024-01-07T12:28:23;17.50;;;16.10;;
39218;SDS011;24934;52.752;6.964;2024-01-07T12:30:49;17.23;;;15.63;;
39218;SDS011;24934;52.752;6.964;2024-01-07T12:33:17;17.30;;;15.90;;
39218;SDS011;24934;52.752;6.964;2024-01-07T12:35:44;17.87;;;16.27;;
39218;SDS011;24934;52.752;6.964;2024-01-07T12:38:10;17.43;;;15.93;;
39218;SDS011;24934;52.752;6.964;2024-01-07T12:40:36;17.40;;;16.00;;
39218;SDS011;24934;52.752;6.964;2024-01-07T12:43:02;17.37;;;15.93;;
39218;SDS011;24934;52.752;6.964;2024-01-07T12:45:28;17.30;;;15.90;;
39218;SDS011;24934;52.752;6.964;2024-01-07T12:47:54;17.63;;;15.93;;
39218;SDS011;24934;52.752;6.964;2024-01-07T12:50:23;18.07;;;16.47;;
39218;SDS011;24934;52.752;6.964;2024-01-07T12:52:53;18.77;;;16.93;;
39218;SDS011;24934;52.752;6.964;2024-01-07T12:55:19;18.20;;;16.50;;
39218;SDS011;24934;52.752;6.964;2024-01-07T12:57:45;18.60;;;17.03;;
39218;SDS011;24934;52.752;6.964;2024-01-07T13:00:11;18.83;;;17.03;;
39218;SDS011;24934;52.752;6.964;2024-01-07T13:02:37;18.30;;;16.50;;
39218;SDS011;24934;52.752;6.964;2024-01-07T13:05:03;17.47;;;15.97;;
39218;SDS011;24934;52.752;6.964;2024-01-07T13:07:30;17.77;;;16.17;;
39218;SDS011;24934;52.752;6.964;2024-01-07T13:09:56;17.53;;;15.73;;
39218;SDS011;24934;52.752;6.964;2024-01-07T13:12:22;16.93;;;15.50;;
39218;SDS011;24934;52.752;6.964;2024-01-07T13:14:48;18.00;;;16.20;;
39218;SDS011;24934;52.752;6.964;2024-01-07T13:17:14;17.37;;;15.80;;
39218;SDS011;24934;52.752;6.964;2024-01-07T13:19:40;17.63;;;16.17;;
39218;SDS011;24934;52.752;6.964;2024-01-07T13:22:07;17.70;;;15.97;;
39218;SDS011;24934;52.752;6.964;2024-01-07T13:24:33;17.70;;;16.23;;
39218;SDS011;24934;52.752;6.964;2024-01-07T13:26:59;17.57;;;15.87;;
39218;SDS011;24934;52.752;6.964;2024-01-07T13:29:25;17.33;;;15.83;;
39218;SDS011;24934;52.752;6.964;2024-01-07T13:31:51;17.63;;;16.10;;
39218;SDS011;24934;52.752;6.964;2024-01-07T13:34:17;17.33;;;15.83;;
39218;SDS011;24934;52.752;6.964;2024-01-07T13:36:43;16.57;;;15.17;;
39218;SDS011;24934;52.752;6.964;2024-01-07T13:39:09;17.80;;;16.20;;
39218;SDS011;24934;52.752;6.964;2024-01-07T13:41:35;16.87;;;15.37;;
39218;SDS011;24934;52.752;6.964;2024-01-07T13:44:02;18.23;;;16.60;;
39218;SDS011;24934;52.752;6.964;2024-01-07T13:46:28;18.07;;;16.07;;
39218;SDS011;24934;52.752;6.964;2024-01-07T13:48:54;17.70;;;16.10;;
39218;SDS011;24934;52.752;6.964;2024-01-07T13:51:20;17.20;;;15.77;;
39218;SDS011;24934;52.752;6.964;2024-01-07T13:53:46;17.90;;;16.30;;
39218;SDS011;24934;52.752;6.964;2024-01-07T13:56:12;17.80;;;16.20;;
39218;SDS011;24934;52.752;6.964;2024-01-07T13:58:38;19.00;;;15.77;;
39218;SDS011;24934;52.752;6.964;2024-01-07T14:01:04;17.17;;;15.67;;
39218;SDS011;24934;52.752;6.964;2024-01-07T14:03:31;17.60;;;15.83;;
39218;SDS011;24934;52.752;6.964;2024-01-07T14:06:00;18.83;;;15.67;;
39218;SDS011;24934;52.752;6.964;2024-01-07T14:08:26;18.13;;;16.43;;
39218;SDS011;24934;52.752;6.964;2024-01-07T14:10:52;17.83;;;16.00;;
39218;SDS011;24934;52.752;6.964;2024-01-07T14:13:18;17.30;;;15.87;;
39218;SDS011;24934;52.752;6.964;2024-01-07T14:15:44;17.63;;;15.97;;
39218;SDS011;24934;52.752;6.964;2024-01-07T14:18:10;17.90;;;16.20;;
39218;SDS011;24934;52.752;6.964;2024-01-07T14:20:40;21.00;;;17.10;;
39218;SDS011;24934;52.752;6.964;2024-01-07T14:23:07;18.03;;;16.43;;
39218;SDS011;24934;52.752;6.964;2024-01-07T14:25:33;17.50;;;15.80;;
39218;SDS011;24934;52.752;6.964;2024-01-07T14:27:59;17.93;;;16.13;;